Terminal Aerodrome Forecast
Issued by NWS Jackson, MS

Home | Current Version | Previous Version | Text Only | Print | Product List | Glossary On
Versions: 1 2 3 4 5 6 7 8 9 10 11 12 13 14 15 16 17 18 19 20
000
FTUS44 KJAN 291129
TAFMEI
TAF
KMEI 291129Z 2912/3012 19006KT P6SM OVC008
     FM291500 17006KT P6SM BKN015
     FM291600 17008KT P6SM SCT025
     FM292000 17008KT P6SM VCTS BKN050CB
     FM300000 17005KT P6SM BKN110
     FM301000 18003KT 4SM BR OVC007=

USA.gov is the U.S. government's official web portal to all federal, state and local government web resources and services.